Time,TemperatureF,DewpointF,PressureIn,WindDirection,WindDirectionDegrees,WindSpeedMPH,WindSpeedGustMPH,Humidity,HourlyPrecipIn,Conditions,Clouds,dailyrainin,SoftwareType,DateUTC
2013-05-04 00:01:00,48.7,37.1,30.32,SSW,205,0.0,1.0,64,0.00,,,0.00,Wunderground v.1.15,2013-05-04 04:01:00,
2013-05-04 00:06:00,48.7,37.8,30.32,NE,51,1.0,4.0,66,0.00,,,0.00,Wunderground v.1.15,2013-05-04 04:06:00,
2013-05-04 00:11:00,48.2,37.8,30.32,NE,54,1.0,1.0,67,0.00,,,0.00,Wunderground v.1.15,2013-05-04 04:11:00,
2013-05-04 00:16:00,47.8,37.7,30.33,NE,42,0.0,1.0,68,0.00,,,0.00,Wunderground v.1.15,2013-05-04 04:16:00,
2013-05-04 00:21:00,47.7,37.3,30.32,NE,42,0.0,0.0,67,0.00,,,0.00,Wunderground v.1.15,2013-05-04 04:21:00,
2013-05-04 00:26:00,47.6,37.6,30.32,NE,42,0.0,0.0,68,0.00,,,0.00,Wunderground v.1.15,2013-05-04 04:26:00,
2013-05-04 00:31:00,47.4,37.7,30.32,North,360,0.0,0.0,69,0.00,,,0.00,Wunderground v.1.15,2013-05-04 04:31:00,
2013-05-04 00:36:00,47.3,38.0,30.32,North,360,0.0,1.0,70,0.00,,,0.00,Wunderground v.1.15,2013-05-04 04:36:00,
2013-05-04 00:41:00,47.1,37.8,30.32,North,1,0.0,0.0,70,0.00,,,0.00,Wunderground v.1.15,2013-05-04 04:41:00,
2013-05-04 00:46:00,47.0,38.1,30.32,North,360,0.0,1.0,71,0.00,,,0.00,Wunderground v.1.15,2013-05-04 04:46:00,
2013-05-04 08:00:00,45.4,41.5,30.31,ENE,68,0.0,4.0,86,0.00,,,0.00,Wunderground v.1.15,2013-05-04 12:00:00,
2013-05-04 08:05:00,45.5,41.6,30.31,ESE,104,0.0,4.0,86,0.00,,,0.00,Wunderground v.1.15,2013-05-04 12:05:00,
2013-05-04 08:11:00,45.6,41.7,30.30,WNW,287,1.0,1.0,86,0.00,,,0.00,Wunderground v.1.15,2013-05-04 12:11:00,
2013-05-04 08:16:00,45.8,41.9,30.31,NE,46,1.0,3.0,86,0.00,,,0.00,Wunderground v.1.15,2013-05-04 12:16:00,
2013-05-04 08:21:00,45.9,41.6,30.31,SW,233,1.0,1.0,85,0.00,,,0.00,Wunderground v.1.15,2013-05-04 12:21:00,
2013-05-04 08:26:00,45.9,41.6,30.31,South,172,1.0,1.0,85,0.00,,,0.00,Wunderground v.1.15,2013-05-04 12:26:00,
2013-05-04 08:31:00,46.0,41.7,30.31,NNE,22,1.0,3.0,85,0.00,,,0.00,Wunderground v.1.15,2013-05-04 12:31:00,
2013-05-04 08:36:00,46.1,41.8,30.31,North,11,1.0,3.0,85,0.00,,,0.00,Wunderground v.1.15,2013-05-04 12:36:00,
2013-05-04 08:41:00,46.3,42.0,30.31,NNW,338,1.0,1.0,85,0.00,,,0.00,Wunderground v.1.15,2013-05-04 12:41:00,
2013-05-04 08:46:00,46.5,42.2,30.31,NW,317,1.0,3.0,85,0.00,,,0.00,Wunderground v.1.15,2013-05-04 12:46:00,
2013-05-04 08:51:00,46.7,42.1,30.30,NNE,27,1.0,2.0,84,0.00,,,0.00,Wunderground v.1.15,2013-05-04 12:51:00,
2013-05-04 08:56:00,46.8,42.2,30.31,ENE,63,1.0,3.0,84,0.00,,,0.00,Wunderground v.1.15,2013-05-04 12:56:00,
2013-05-04 09:01:00,47.0,42.1,30.30,SE,133,1.0,1.0,83,0.00,,,0.00,Wunderground v.1.15,2013-05-04 13:01:00,
2013-05-04 09:03:00,47.2,42.3,30.30,WSW,252,1.0,2.0,83,0.00,,,0.00,Wunderground v.1.15,2013-05-04 13:03:00,
2013-05-04 09:09:00,47.4,42.5,30.30,South,186,1.0,2.0,83,0.00,,,0.00,Wunderground v.1.15,2013-05-04 13:09:00,
2013-05-04 09:14:00,47.7,42.5,30.30,NE,56,1.0,2.0,82,0.00,,,0.00,Wunderground v.1.15,2013-05-04 13:14:00,
2013-05-04 09:19:00,47.9,42.3,30.30,North,1,1.0,4.0,81,0.00,,,0.00,Wunderground v.1.15,2013-05-04 13:19:00,
2013-05-04 09:24:00,48.0,42.4,30.30,North,349,1.0,2.0,81,0.00,,,0.00,Wunderground v.1.15,2013-05-04 13:24:00,
2013-05-04 09:29:00,48.4,42.5,30.30,WSW,243,1.0,2.0,80,0.00,,,0.00,Wunderground v.1.15,2013-05-04 13:29:00,
2013-05-04 09:34:00,49.0,43.1,30.30,West,259,0.0,1.0,80,0.00,,,0.00,Wunderground v.1.15,2013-05-04 13:34:00,
2013-05-04 09:39:00,49.8,43.2,30.30,North,351,0.0,3.0,78,0.00,,,0.00,Wunderground v.1.15,2013-05-04 13:39:00,
2013-05-04 09:44:00,50.4,43.5,30.30,ESE,104,1.0,3.0,77,0.00,,,0.00,Wunderground v.1.15,2013-05-04 13:44:00,
2013-05-04 09:49:00,51.1,43.4,30.30,West,280,1.0,4.0,75,0.00,,,0.00,Wunderground v.1.15,2013-05-04 13:49:00,
2013-05-04 09:54:00,51.9,43.5,30.29,SSW,211,1.0,2.0,73,0.00,,,0.00,Wunderground v.1.15,2013-05-04 13:54:00,
2013-05-04 09:59:00,52.1,43.0,30.29,ENE,60,1.0,5.0,71,0.00,,,0.00,Wunderground v.1.15,2013-05-04 13:59:00,
2013-05-04 10:04:00,52.1,43.0,30.29,WNW,295,2.0,2.0,71,0.00,,,0.00,Wunderground v.1.15,2013-05-04 14:04:00,
2013-05-04 10:09:00,52.5,43.0,30.28,NE,55,1.0,2.0,70,0.00,,,0.00,Wunderground v.1.15,2013-05-04 14:09:00,
2013-05-04 10:14:00,52.5,42.6,30.29,North,350,1.0,3.0,69,0.00,,,0.00,Wunderground v.1.15,2013-05-04 14:14:00,
2013-05-04 10:19:00,52.6,42.7,30.28,East,94,1.0,4.0,69,0.00,,,0.00,Wunderground v.1.15,2013-05-04 14:19:00,
2013-05-04 10:24:00,52.7,42.4,30.28,NW,322,1.0,2.0,68,0.00,,,0.00,Wunderground v.1.15,2013-05-04 14:24:00,
2013-05-04 10:29:00,52.8,42.1,30.28,ESE,103,1.0,4.0,67,0.00,,,0.00,Wunderground v.1.15,2013-05-04 14:29:00,
2013-05-04 10:34:00,53.3,42.6,30.28,West,270,1.0,2.0,67,0.00,,,0.00,Wunderground v.1.15,2013-05-04 14:34:00,
2013-05-04 10:39:00,53.8,42.3,30.28,WSW,258,1.0,4.0,65,0.00,,,0.00,Wunderground v.1.15,2013-05-04 14:39:00,
2013-05-04 10:44:00,54.4,42.5,30.28,SE,128,2.0,4.0,64,0.00,,,0.00,Wunderground v.1.15,2013-05-04 14:44:00,
2013-05-04 10:49:00,54.8,41.6,30.28,WNW,297,1.0,4.0,61,0.00,,,0.00,Wunderground v.1.15,2013-05-04 14:49:00,
2013-05-04 10:54:00,54.9,41.7,30.28,East,101,2.0,5.0,61,0.00,,,0.00,Wunderground v.1.15,2013-05-04 14:54:00,
2013-05-04 10:59:00,55.1,41.5,30.28,North,5,1.0,5.0,60,0.00,,,0.00,Wunderground v.1.15,2013-05-04 14:59:00,
2013-05-04 11:04:00,55.5,41.8,30.27,West,259,1.0,4.0,60,0.00,,,0.00,Wunderground v.1.15,2013-05-04 15:04:00,
2013-05-04 11:09:00,55.8,42.1,30.27,SSE,158,1.0,4.0,60,0.00,,,0.00,Wunderground v.1.15,2013-05-04 15:09:00,
2013-05-04 11:14:00,56.1,42.0,30.27,WSW,245,1.0,3.0,59,0.00,,,0.00,Wunderground v.1.15,2013-05-04 15:14:00,
2013-05-04 11:19:00,56.5,41.9,30.27,WNW,289,1.0,3.0,58,0.00,,,0.00,Wunderground v.1.15,2013-05-04 15:19:00,
2013-05-04 11:24:00,56.9,41.8,30.27,SE,131,1.0,3.0,57,0.00,,,0.00,Wunderground v.1.15,2013-05-04 15:24:00,
2013-05-04 11:28:00,57.1,42.0,30.27,SSE,152,1.0,6.0,57,0.00,,,0.00,Wunderground v.1.15,2013-05-04 15:28:00,
2013-05-04 11:34:00,57.6,42.9,30.27,SSE,165,2.0,3.0,58,0.00,,,0.00,Wunderground v.1.15,2013-05-04 15:34:00,
2013-05-04 11:39:00,58.1,42.0,30.26,SW,224,2.0,3.0,55,0.00,,,0.00,Wunderground v.1.15,2013-05-04 15:39:00,
2013-05-04 11:44:00,58.7,42.6,30.26,South,191,1.0,2.0,55,0.00,,,0.00,Wunderground v.1.15,2013-05-04 15:44:00,
2013-05-04 11:48:00,59.2,42.6,30.26,ENE,71,1.0,5.0,54,0.00,,,0.00,Wunderground v.1.15,2013-05-04 15:48:00,
2013-05-04 11:53:00,59.5,41.9,30.26,West,281,1.0,2.0,52,0.00,,,0.00,Wunderground v.1.15,2013-05-04 15:53:00,
2013-05-04 11:58:00,59.9,41.7,30.26,NNE,13,1.0,3.0,51,0.00,,,0.00,Wunderground v.1.15,2013-05-04 15:58:00,
2013-05-04 12:03:00,60.5,41.8,30.26,NNE,24,2.0,4.0,50,0.00,,,0.00,Wunderground v.1.15,2013-05-04 16:03:00,
2013-05-04 12:08:00,60.4,40.6,30.25,NE,47,2.0,4.0,48,0.00,,,0.00,Wunderground v.1.15,2013-05-04 16:08:00,
2013-05-04 12:13:00,60.2,41.0,30.25,ESE,120,2.0,4.0,49,0.00,,,0.00,Wunderground v.1.15,2013-05-04 16:13:00,
2013-05-04 12:18:00,60.6,40.8,30.25,SE,128,2.0,4.0,48,0.00,,,0.00,Wunderground v.1.15,2013-05-04 16:18:00,
2013-05-04 12:23:00,61.3,40.3,30.25,NNE,29,1.0,3.0,46,0.00,,,0.00,Wunderground v.1.15,2013-05-04 16:23:00,
2013-05-04 12:29:00,61.2,40.2,30.25,SSW,195,2.0,5.0,46,0.00,,,0.00,Wunderground v.1.15,2013-05-04 16:29:00,
2013-05-04 12:34:00,61.6,40.6,30.25,SSW,207,2.0,5.0,46,0.00,,,0.00,Wunderground v.1.15,2013-05-04 16:34:00,
2013-05-04 12:39:00,62.0,39.8,30.25,SE,125,2.0,6.0,44,0.00,,,0.00,Wunderground v.1.15,2013-05-04 16:39:00,
2013-05-04 12:44:00,62.2,40.6,30.25,SE,135,1.0,4.0,45,0.00,,,0.00,Wunderground v.1.15,2013-05-04 16:44:00,
2013-05-04 12:49:00,62.2,40.0,30.24,North,4,2.0,12.0,44,0.00,,,0.00,Wunderground v.1.15,2013-05-04 16:49:00,
2013-05-04 12:54:00,62.6,40.4,30.24,East,81,3.0,7.0,44,0.00,,,0.00,Wunderground v.1.15,2013-05-04 16:54:00,
2013-05-04 12:58:00,62.2,40.6,30.24,SE,143,3.0,7.0,45,0.00,,,0.00,Wunderground v.1.15,2013-05-04 16:58:00,
2013-05-04 13:03:00,62.9,40.6,30.24,West,280,2.0,3.0,44,0.00,,,0.00,Wunderground v.1.15,2013-05-04 17:03:00,
2013-05-04 13:09:00,63.2,40.9,30.24,ENE,69,2.0,9.0,44,0.00,,,0.00,Wunderground v.1.15,2013-05-04 17:09:00,
2013-05-04 13:14:00,63.1,41.4,30.24,SE,136,3.0,10.0,45,0.00,,,0.00,Wunderground v.1.15,2013-05-04 17:14:00,
2013-05-04 13:19:00,63.4,41.1,30.23,SSE,160,2.0,10.0,44,0.00,,,0.00,Wunderground v.1.15,2013-05-04 17:19:00,
2013-05-04 13:24:00,63.5,41.8,30.23,SW,229,2.0,5.0,45,0.00,,,0.00,Wunderground v.1.15,2013-05-04 17:24:00,
2013-05-04 13:29:00,63.7,42.5,30.23,WSW,250,2.0,6.0,46,0.00,,,0.00,Wunderground v.1.15,2013-05-04 17:29:00,
2013-05-04 13:34:00,64.1,42.9,30.23,NW,316,2.0,5.0,46,0.00,,,0.00,Wunderground v.1.15,2013-05-04 17:34:00,
2013-05-04 13:39:00,64.4,43.2,30.23,SSW,198,2.0,5.0,46,0.00,,,0.00,Wunderground v.1.15,2013-05-04 17:39:00,
2013-05-04 13:44:00,64.3,42.5,30.22,ENE,61,2.0,5.0,45,0.00,,,0.00,Wunderground v.1.15,2013-05-04 17:44:00,
2013-05-04 13:49:00,64.5,42.7,30.23,WSW,240,2.0,5.0,45,0.00,,,0.00,Wunderground v.1.15,2013-05-04 17:49:00,
2013-05-04 13:54:00,65.1,43.2,30.22,NNE,26,2.0,4.0,45,0.00,,,0.00,Wunderground v.1.15,2013-05-04 17:54:00,
2013-05-04 13:59:00,65.6,43.1,30.22,WSW,246,2.0,5.0,44,0.00,,,0.00,Wunderground v.1.15,2013-05-04 17:59:00,
2013-05-04 14:04:00,65.9,42.8,30.22,SW,215,2.0,4.0,43,0.00,,,0.00,Wunderground v.1.15,2013-05-04 18:04:00,
2013-05-04 14:09:00,66.4,43.8,30.22,SE,141,1.0,5.0,44,0.00,,,0.00,Wunderground v.1.15,2013-05-04 18:09:00,
2013-05-04 14:14:00,66.4,43.2,30.22,SE,139,2.0,6.0,43,0.00,,,0.00,Wunderground v.1.15,2013-05-04 18:14:00,
2013-05-04 14:19:00,66.4,43.8,30.22,SSW,210,2.0,6.0,44,0.00,,,0.00,Wunderground v.1.15,2013-05-04 18:19:00,
2013-05-04 14:24:00,66.6,44.0,30.21,ENE,65,2.0,4.0,44,0.00,,,0.00,Wunderground v.1.15,2013-05-04 18:24:00,
2013-05-04 14:29:00,66.3,43.1,30.21,East,90,2.0,6.0,43,0.00,,,0.00,Wunderground v.1.15,2013-05-04 18:29:00,
2013-05-04 14:34:00,66.0,44.0,30.21,North,350,3.0,7.0,45,0.00,,,0.00,Wunderground v.1.15,2013-05-04 18:34:00,
2013-05-04 14:39:00,66.7,44.1,30.21,NNW,329,2.0,9.0,44,0.00,,,0.00,Wunderground v.1.15,2013-05-04 18:39:00,
2013-05-04 14:44:00,67.2,43.3,30.21,South,186,2.0,5.0,42,0.00,,,0.00,Wunderground v.1.15,2013-05-04 18:44:00,
2013-05-04 14:49:00,67.3,43.4,30.20,East,96,2.0,5.0,42,0.00,,,0.00,Wunderground v.1.15,2013-05-04 18:49:00,
2013-05-04 14:54:00,67.0,43.8,30.20,NE,36,2.0,6.0,43,0.00,,,0.00,Wunderground v.1.15,2013-05-04 18:54:00,
2013-05-04 14:59:00,66.3,43.1,30.20,ENE,70,3.0,9.0,43,0.00,,,0.00,Wunderground v.1.15,2013-05-04 18:59:00,
2013-05-04 15:04:00,66.7,42.2,30.20,NW,307,3.0,5.0,41,0.00,,,0.00,Wunderground v.1.15,2013-05-04 19:04:00,
2013-05-04 15:09:00,66.7,42.9,30.19,SSE,160,2.0,7.0,42,0.00,,,0.00,Wunderground v.1.15,2013-05-04 19:09:00,
2013-05-04 15:14:00,66.8,42.3,30.19,WNW,285,3.0,7.0,41,0.00,,,0.00,Wunderground v.1.15,2013-05-04 19:14:00,
2013-05-04 15:19:00,67.0,43.1,30.19,SW,215,3.0,9.0,42,0.00,,,0.00,Wunderground v.1.15,2013-05-04 19:19:00,
2013-05-04 15:24:00,67.0,43.8,30.19,NE,46,3.0,7.0,43,0.00,,,0.00,Wunderground v.1.15,2013-05-04 19:24:00,
2013-05-04 15:29:00,67.1,42.6,30.19,South,191,3.0,8.0,41,0.00,,,0.00,Wunderground v.1.15,2013-05-04 19:29:00,
2013-05-04 15:34:00,66.4,42.6,30.19,SSW,200,3.0,9.0,42,0.00,,,0.00,Wunderground v.1.15,2013-05-04 19:34:00,
2013-05-04 15:39:00,66.7,43.5,30.19,SSW,209,4.0,9.0,43,0.00,,,0.00,Wunderground v.1.15,2013-05-04 19:39:00,
2013-05-04 15:44:00,66.7,42.9,30.19,East,86,3.0,7.0,42,0.00,,,0.00,Wunderground v.1.15,2013-05-04 19:44:00,
2013-05-04 15:49:00,67.1,42.6,30.18,West,278,3.0,7.0,41,0.00,,,0.00,Wunderground v.1.15,2013-05-04 19:49:00,
2013-05-04 15:54:00,67.3,42.1,30.18,ESE,110,2.0,8.0,40,0.00,,,0.00,Wunderground v.1.15,2013-05-04 19:54:00,
2013-05-04 15:59:00,67.7,42.5,30.18,ESE,105,2.0,8.0,40,0.00,,,0.00,Wunderground v.1.15,2013-05-04 19:59:00,
2013-05-04 16:04:00,67.9,42.0,30.18,SW,217,2.0,6.0,39,0.00,,,0.00,Wunderground v.1.15,2013-05-04 20:04:00,
2013-05-04 16:09:00,67.5,41.7,30.17,West,280,2.0,9.0,39,0.00,,,0.00,Wunderground v.1.15,2013-05-04 20:09:00,
2013-05-04 16:14:00,67.3,42.1,30.17,East,100,2.0,4.0,40,0.00,,,0.00,Wunderground v.1.15,2013-05-04 20:14:00,
2013-05-04 16:19:00,67.7,40.5,30.17,NNE,27,2.0,4.0,37,0.00,,,0.00,Wunderground v.1.15,2013-05-04 20:19:00,
2013-05-04 16:24:00,67.3,41.5,30.17,North,7,2.0,4.0,39,0.00,,,0.00,Wunderground v.1.15,2013-05-04 20:24:00,
2013-05-04 16:29:00,67.5,41.7,30.17,SW,219,2.0,4.0,39,0.00,,,0.00,Wunderground v.1.15,2013-05-04 20:29:00,
2013-05-04 16:34:00,67.4,41.6,30.18,SW,215,2.0,4.0,39,0.00,,,0.00,Wunderground v.1.15,2013-05-04 20:34:00,
2013-05-04 16:39:00,67.2,40.7,30.17,WNW,287,2.0,9.0,38,0.00,,,0.00,Wunderground v.1.15,2013-05-04 20:39:00,
2013-05-04 16:44:00,67.5,41.0,30.17,NE,48,1.0,4.0,38,0.00,,,0.00,Wunderground v.1.15,2013-05-04 20:44:00,
2013-05-04 16:49:00,67.3,40.1,30.17,NE,44,2.0,7.0,37,0.00,,,0.00,Wunderground v.1.15,2013-05-04 20:49:00,
2013-05-04 16:54:00,66.9,41.1,30.17,North,8,3.0,5.0,39,0.00,,,0.00,Wunderground v.1.15,2013-05-04 20:54:00,
2013-05-04 16:59:00,67.0,40.5,30.17,NNW,348,3.0,7.0,38,0.00,,,0.00,Wunderground v.1.15,2013-05-04 20:59:00,
2013-05-04 17:04:00,66.8,40.4,30.16,North,352,3.0,5.0,38,0.00,,,0.00,Wunderground v.1.15,2013-05-04 21:04:00,
2013-05-04 17:09:00,66.7,40.3,30.16,NE,36,2.0,6.0,38,0.00,,,0.00,Wunderground v.1.15,2013-05-04 21:09:00,
2013-05-04 17:14:00,66.7,40.3,30.16,South,191,2.0,5.0,38,0.00,,,0.00,Wunderground v.1.15,2013-05-04 21:14:00,
2013-05-04 17:19:00,66.6,40.2,30.16,South,179,2.0,6.0,38,0.00,,,0.00,Wunderground v.1.15,2013-05-04 21:19:00,
2013-05-04 17:24:00,66.3,40.6,30.16,WNW,285,3.0,7.0,39,0.00,,,0.00,Wunderground v.1.15,2013-05-04 21:24:00,
2013-05-04 17:29:00,66.3,41.2,30.16,WNW,299,2.0,7.0,40,0.00,,,0.00,Wunderground v.1.15,2013-05-04 21:29:00,
2013-05-04 17:34:00,66.4,40.7,30.16,NE,35,1.0,4.0,39,0.00,,,0.00,Wunderground v.1.15,2013-05-04 21:34:00,
2013-05-04 17:39:00,66.4,41.3,30.16,ENE,58,2.0,5.0,40,0.00,,,0.00,Wunderground v.1.15,2013-05-04 21:39:00,
2013-05-04 17:44:00,66.2,40.5,30.16,NW,322,2.0,5.0,39,0.00,,,0.00,Wunderground v.1.15,2013-05-04 21:44:00,
2013-05-04 17:49:00,66.0,41.0,30.16,NNE,22,2.0,5.0,40,0.00,,,0.00,Wunderground v.1.15,2013-05-04 21:49:00,
2013-05-04 17:54:00,65.8,41.4,30.16,WSW,241,2.0,7.0,41,0.00,,,0.00,Wunderground v.1.15,2013-05-04 21:54:00,
2013-05-04 17:59:00,65.4,41.1,30.16,NNW,340,2.0,7.0,41,0.00,,,0.00,Wunderground v.1.15,2013-05-04 21:59:00,
2013-05-04 18:04:00,65.5,41.8,30.16,SW,233,2.0,2.0,42,0.00,,,0.00,Wunderground v.1.15,2013-05-04 22:04:00,
2013-05-04 18:09:00,65.5,41.8,30.16,SE,142,1.0,4.0,42,0.00,,,0.00,Wunderground v.1.15,2013-05-04 22:09:00,
2013-05-04 18:14:00,65.3,42.2,30.16,ESE,111,2.0,5.0,43,0.00,,,0.00,Wunderground v.1.15,2013-05-04 22:14:00,
2013-05-04 18:19:00,65.1,42.0,30.16,SSE,165,1.0,5.0,43,0.00,,,0.00,Wunderground v.1.15,2013-05-04 22:19:00,
2013-05-04 18:24:00,65.0,41.9,30.16,SSW,210,0.0,1.0,43,0.00,,,0.00,Wunderground v.1.15,2013-05-04 22:24:00,
2013-05-04 18:29:00,64.7,42.3,30.16,ENE,69,1.0,4.0,44,0.00,,,0.00,Wunderground v.1.15,2013-05-04 22:29:00,
2013-05-04 18:34:00,64.5,42.1,30.16,SE,146,1.0,3.0,44,0.00,,,0.00,Wunderground v.1.15,2013-05-04 22:34:00,
2013-05-04 18:39:00,64.4,42.6,30.16,West,276,1.0,3.0,45,0.00,,,0.00,Wunderground v.1.15,2013-05-04 22:39:00,
2013-05-04 18:44:00,64.1,42.3,30.16,NW,323,1.0,5.0,45,0.00,,,0.00,Wunderground v.1.15,2013-05-04 22:44:00,
2013-05-04 18:49:00,63.9,42.7,30.16,WNW,302,1.0,5.0,46,0.00,,,0.00,Wunderground v.1.15,2013-05-04 22:49:00,
2013-05-04 18:54:00,63.8,42.6,30.16,NNW,345,1.0,2.0,46,0.00,,,0.00,Wunderground v.1.15,2013-05-04 22:54:00,
2013-05-04 18:59:00,63.6,42.4,30.16,ESE,119,1.0,3.0,46,0.00,,,0.00,Wunderground v.1.15,2013-05-04 22:59:00,
2013-05-04 19:04:00,63.5,42.3,30.16,SSW,210,1.0,2.0,46,0.00,,,0.00,Wunderground v.1.15,2013-05-04 23:04:00,
2013-05-04 19:09:00,63.5,42.9,30.16,South,190,1.0,5.0,47,0.00,,,0.00,Wunderground v.1.15,2013-05-04 23:09:00,
2013-05-04 19:14:00,63.3,43.3,30.16,SW,225,1.0,2.0,48,0.00,,,0.00,Wunderground v.1.15,2013-05-04 23:14:00,
2013-05-04 19:19:00,63.0,43.0,30.16,SSE,153,0.0,2.0,48,0.00,,,0.00,Wunderground v.1.15,2013-05-04 23:19:00,
2013-05-04 19:24:00,62.8,43.3,30.16,NNE,13,0.0,2.0,49,0.00,,,0.00,Wunderground v.1.15,2013-05-04 23:24:00,
2013-05-04 19:29:00,62.5,43.6,30.16,NE,49,1.0,2.0,50,0.00,,,0.00,Wunderground v.1.15,2013-05-04 23:29:00,
2013-05-04 19:34:00,62.4,43.0,30.16,ENE,75,1.0,5.0,49,0.00,,,0.00,Wunderground v.1.15,2013-05-04 23:34:00,
2013-05-04 19:39:00,62.2,43.3,30.16,ENE,75,1.0,5.0,50,0.00,,,0.00,Wunderground v.1.15,2013-05-04 23:39:00,
2013-05-04 19:44:00,61.9,42.5,30.16,NE,51,1.0,3.0,49,0.00,,,0.00,Wunderground v.1.15,2013-05-04 23:44:00,
2013-05-04 19:49:00,61.9,42.5,30.17,WNW,288,1.0,3.0,49,0.00,,,0.00,Wunderground v.1.15,2013-05-04 23:49:00,
2013-05-04 19:54:00,61.7,42.3,30.17,SW,226,1.0,2.0,49,0.00,,,0.00,Wunderground v.1.15,2013-05-04 23:54:00,
2013-05-04 19:59:00,61.6,42.8,30.17,NE,35,1.0,3.0,50,0.00,,,0.00,Wunderground v.1.15,2013-05-04 23:59:00,
2013-05-04 20:04:00,61.4,42.6,30.17,NE,34,1.0,2.0,50,0.00,,,0.00,Wunderground v.1.15,2013-05-05 00:04:00,
2013-05-04 20:09:00,61.2,42.4,30.17,SE,124,1.0,4.0,50,0.00,,,0.00,Wunderground v.1.15,2013-05-05 00:09:00,
2013-05-04 20:14:00,61.0,42.7,30.17,NNW,344,1.0,2.0,51,0.00,,,0.00,Wunderground v.1.15,2013-05-05 00:14:00,
2013-05-04 20:19:00,60.5,42.8,30.17,SW,236,1.0,3.0,52,0.00,,,0.00,Wunderground v.1.15,2013-05-05 00:19:00,
2013-05-04 20:24:00,60.0,42.8,30.18,WNW,287,0.0,1.0,53,0.00,,,0.00,Wunderground v.1.15,2013-05-05 00:24:00,
2013-05-04 20:29:00,59.6,41.9,30.18,WNW,300,0.0,2.0,52,0.00,,,0.00,Wunderground v.1.15,2013-05-05 00:29:00,
2013-05-04 20:34:00,59.4,42.7,30.18,WNW,300,0.0,1.0,54,0.00,,,0.00,Wunderground v.1.15,2013-05-05 00:34:00,
2013-05-04 20:39:00,59.0,42.4,30.18,WNW,300,0.0,1.0,54,0.00,,,0.00,Wunderground v.1.15,2013-05-05 00:39:00,
2013-05-04 20:44:00,58.8,41.7,30.18,WNW,300,0.0,0.0,53,0.00,,,0.00,Wunderground v.1.15,2013-05-05 00:44:00,
2013-05-04 20:49:00,58.6,41.0,30.19,NW,326,0.0,2.0,52,0.00,,,0.00,Wunderground v.1.15,2013-05-05 00:49:00,
2013-05-04 20:54:00,58.8,41.2,30.19,ENE,75,0.0,1.0,52,0.00,,,0.00,Wunderground v.1.15,2013-05-05 00:54:00,
2013-05-04 20:59:00,58.8,41.7,30.19,East,86,0.0,1.0,53,0.00,,,0.00,Wunderground v.1.15,2013-05-05 00:59:00,
2013-05-04 21:04:00,58.5,40.9,30.20,NNW,338,0.0,1.0,52,0.00,,,0.00,Wunderground v.1.15,2013-05-05 01:04:00,
2013-05-04 21:09:00,58.6,41.0,30.20,NW,308,0.0,2.0,52,0.00,,,0.00,Wunderground v.1.15,2013-05-05 01:09:00,
2013-05-04 21:14:00,58.4,40.8,30.20,North,4,0.0,1.0,52,0.00,,,0.00,Wunderground v.1.15,2013-05-05 01:14:00,
2013-05-04 21:19:00,58.2,41.1,30.20,North,3,0.0,1.0,53,0.00,,,0.00,Wunderground v.1.15,2013-05-05 01:19:00,
2013-05-04 21:24:00,57.9,41.3,30.20,North,4,0.0,1.0,54,0.00,,,0.00,Wunderground v.1.15,2013-05-05 01:24:00,
2013-05-04 21:29:00,57.6,41.1,30.20,North,3,0.0,1.0,54,0.00,,,0.00,Wunderground v.1.15,2013-05-05 01:29:00,
2013-05-04 21:34:00,57.3,41.7,30.20,North,4,0.0,0.0,56,0.00,,,0.00,Wunderground v.1.15,2013-05-05 01:34:00,
2013-05-04 21:39:00,56.9,41.8,30.20,North,4,0.0,1.0,57,0.00,,,0.00,Wunderground v.1.15,2013-05-05 01:39:00,
2013-05-04 21:44:00,56.3,41.7,30.21,North,4,0.0,1.0,58,0.00,,,0.00,Wunderground v.1.15,2013-05-05 01:44:00,
2013-05-04 21:49:00,56.0,41.9,30.21,North,4,0.0,1.0,59,0.00,,,0.00,Wunderground v.1.15,2013-05-05 01:49:00,
2013-05-04 21:54:00,55.6,41.9,30.21,North,4,0.0,0.0,60,0.00,,,0.00,Wunderground v.1.15,2013-05-05 01:54:00,
2013-05-04 21:59:00,55.2,41.5,30.21,ESE,113,0.0,1.0,60,0.00,,,0.00,Wunderground v.1.15,2013-05-05 01:59:00,
2013-05-04 22:04:00,54.8,42.0,30.21,ESE,113,0.0,0.0,62,0.00,,,0.00,Wunderground v.1.15,2013-05-05 02:04:00,
2013-05-04 22:09:00,54.4,42.1,30.22,ESE,113,0.0,0.0,63,0.00,,,0.00,Wunderground v.1.15,2013-05-05 02:09:00,
2013-05-04 22:14:00,54.1,42.2,30.22,ESE,113,0.0,0.0,64,0.00,,,0.00,Wunderground v.1.15,2013-05-05 02:14:00,
2013-05-04 22:19:00,53.7,41.8,30.22,ESE,113,0.0,0.0,64,0.00,,,0.00,Wunderground v.1.15,2013-05-05 02:19:00,
2013-05-04 22:24:00,53.4,41.9,30.22,ESE,113,0.0,0.0,65,0.00,,,0.00,Wunderground v.1.15,2013-05-05 02:24:00,
2013-05-04 22:29:00,53.0,41.9,30.22,ESE,113,0.0,0.0,66,0.00,,,0.00,Wunderground v.1.15,2013-05-05 02:29:00,
2013-05-04 22:34:00,52.7,42.0,30.22,ESE,113,0.0,0.0,67,0.00,,,0.00,Wunderground v.1.15,2013-05-05 02:34:00,
2013-05-04 22:39:00,52.4,41.8,30.22,ESE,113,0.0,0.0,67,0.00,,,0.00,Wunderground v.1.15,2013-05-05 02:39:00,
2013-05-04 22:44:00,52.0,41.8,30.21,ESE,113,0.0,0.0,68,0.00,,,0.00,Wunderground v.1.15,2013-05-05 02:44:00,
2013-05-04 22:49:00,51.7,41.5,30.21,ESE,113,0.0,0.0,68,0.00,,,0.00,Wunderground v.1.15,2013-05-05 02:49:00,
2013-05-04 22:54:00,51.4,41.6,30.21,ESE,113,0.0,0.0,69,0.00,,,0.00,Wunderground v.1.15,2013-05-05 02:54:00,
2013-05-04 22:59:00,51.1,41.7,30.21,North,352,0.0,1.0,70,0.00,,,0.00,Wunderground v.1.15,2013-05-05 02:59:00,